sensor_id;sensor_type;location;lat;lon;timestamp;P1;durP1;ratioP1;P2;durP2;ratioP2
47365;SDS011;33105;47.964;7.982;2023-05-15T00:01:17;7.80;;;5.30;;
47365;SDS011;33105;47.964;7.982;2023-05-15T00:04:18;8.68;;;5.00;;
47365;SDS011;33105;47.964;7.982;2023-05-15T00:07:19;8.02;;;5.00;;
47365;SDS011;33105;47.964;7.982;2023-05-15T00:10:21;10.80;;;4.57;;
47365;SDS011;33105;47.964;7.982;2023-05-15T00:13:22;7.25;;;4.85;;
47365;SDS011;33105;47.964;7.982;2023-05-15T00:16:23;7.57;;;4.13;;
47365;SDS011;33105;47.964;7.982;2023-05-15T00:19:24;5.97;;;5.00;;
47365;SDS011;33105;47.964;7.982;2023-05-15T00:22:25;8.07;;;4.70;;
47365;SDS011;33105;47.964;7.982;2023-05-15T00:25:27;9.57;;;4.75;;
47365;SDS011;33105;47.964;7.982;2023-05-15T00:28:28;11.65;;;4.95;;
47365;SDS011;33105;47.964;7.982;2023-05-15T00:31:30;6.05;;;4.07;;
47365;SDS011;33105;47.964;7.982;2023-05-15T00:34:33;5.18;;;4.00;;
47365;SDS011;33105;47.964;7.982;2023-05-15T00:37:34;7.63;;;4.80;;
47365;SDS011;33105;47.964;7.982;2023-05-15T00:40:35;10.40;;;4.88;;
47365;SDS011;33105;47.964;7.982;2023-05-15T00:43:38;12.10;;;5.10;;
47365;SDS011;33105;47.964;7.982;2023-05-15T00:46:40;7.30;;;4.95;;
47365;SDS011;33105;47.964;7.982;2023-05-15T00:49:42;7.63;;;4.68;;
47365;SDS011;33105;47.964;7.982;2023-05-15T00:52:44;8.68;;;5.00;;
47365;SDS011;33105;47.964;7.982;2023-05-15T00:55:46;6.75;;;4.47;;
47365;SDS011;33105;47.964;7.982;2023-05-15T00:58:48;11.32;;;4.93;;
47365;SDS011;33105;47.964;7.982;2023-05-15T01:01:50;7.07;;;4.85;;
47365;SDS011;33105;47.964;7.982;2023-05-15T01:04:51;5.95;;;4.05;;
47365;SDS011;33105;47.964;7.982;2023-05-15T01:07:59;6.07;;;4.82;;
47365;SDS011;33105;47.964;7.982;2023-05-15T01:11:07;8.75;;;4.75;;
47365;SDS011;33105;47.964;7.982;2023-05-15T01:14:08;9.15;;;4.70;;
47365;SDS011;33105;47.964;7.982;2023-05-15T01:17:10;10.68;;;5.07;;
47365;SDS011;33105;47.964;7.982;2023-05-15T01:20:11;8.50;;;5.22;;
47365;SDS011;33105;47.964;7.982;2023-05-15T01:23:22;7.00;;;5.43;;
47365;SDS011;33105;47.964;7.982;2023-05-15T01:26:47;13.10;;;5.85;;
47365;SDS011;33105;47.964;7.982;2023-05-15T01:33:24;8.50;;;4.97;;
47365;SDS011;33105;47.964;7.982;2023-05-15T01:36:36;10.13;;;5.93;;
47365;SDS011;33105;47.964;7.982;2023-05-15T01:39:42;8.45;;;5.10;;
47365;SDS011;33105;47.964;7.982;2023-05-15T01:42:55;10.25;;;5.53;;
47365;SDS011;33105;47.964;7.982;2023-05-15T01:46:03;8.95;;;5.07;;
47365;SDS011;33105;47.964;7.982;2023-05-15T01:49:06;11.60;;;5.82;;
47365;SDS011;33105;47.964;7.982;2023-05-15T01:52:13;8.02;;;4.47;;
47365;SDS011;33105;47.964;7.982;2023-05-15T01:55:21;8.30;;;5.15;;
47365;SDS011;33105;47.964;7.982;2023-05-15T01:58:24;8.43;;;5.15;;
47365;SDS011;33105;47.964;7.982;2023-05-15T02:01:26;6.25;;;4.80;;
47365;SDS011;33105;47.964;7.982;2023-05-15T02:04:28;6.80;;;5.78;;
47365;SDS011;33105;47.964;7.982;2023-05-15T02:07:30;8.13;;;5.47;;
47365;SDS011;33105;47.964;7.982;2023-05-15T02:10:34;15.02;;;6.30;;
47365;SDS011;33105;47.964;7.982;2023-05-15T02:13:35;8.60;;;5.82;;
47365;SDS011;33105;47.964;7.982;2023-05-15T02:16:38;12.73;;;5.50;;
47365;SDS011;33105;47.964;7.982;2023-05-15T02:19:41;6.75;;;5.40;;
47365;SDS011;33105;47.964;7.982;2023-05-15T02:22:43;6.47;;;4.78;;
47365;SDS011;33105;47.964;7.982;2023-05-15T02:32:37;9.85;;;5.05;;
47365;SDS011;33105;47.964;7.982;2023-05-15T02:39:13;13.15;;;5.45;;
47365;SDS011;33105;47.964;7.982;2023-05-15T02:42:16;7.43;;;4.45;;
47365;SDS011;33105;47.964;7.982;2023-05-15T02:45:18;8.32;;;4.70;;
47365;SDS011;33105;47.964;7.982;2023-05-15T02:48:20;8.50;;;4.10;;
47365;SDS011;33105;47.964;7.982;2023-05-15T02:51:22;11.32;;;4.10;;
47365;SDS011;33105;47.964;7.982;2023-05-15T02:54:23;12.18;;;3.65;;
47365;SDS011;33105;47.964;7.982;2023-05-15T02:57:25;7.82;;;4.38;;
47365;SDS011;33105;47.964;7.982;2023-05-15T03:00:26;5.55;;;3.50;;
47365;SDS011;33105;47.964;7.982;2023-05-15T03:03:27;15.25;;;4.10;;
47365;SDS011;33105;47.964;7.982;2023-05-15T03:06:29;5.47;;;4.25;;
47365;SDS011;33105;47.964;7.982;2023-05-15T03:09:31;5.95;;;4.25;;
47365;SDS011;33105;47.964;7.982;2023-05-15T03:12:32;9.13;;;4.43;;
47365;SDS011;33105;47.964;7.982;2023-05-15T03:15:34;4.72;;;3.58;;
47365;SDS011;33105;47.964;7.982;2023-05-15T03:18:35;6.75;;;3.75;;
47365;SDS011;33105;47.964;7.982;2023-05-15T03:21:36;5.18;;;4.30;;
47365;SDS011;33105;47.964;7.982;2023-05-15T03:24:38;6.63;;;3.58;;
47365;SDS011;33105;47.964;7.982;2023-05-15T03:27:39;8.63;;;4.07;;
47365;SDS011;33105;47.964;7.982;2023-05-15T03:30:42;7.72;;;4.05;;
47365;SDS011;33105;47.964;7.982;2023-05-15T03:33:45;7.00;;;4.10;;
47365;SDS011;33105;47.964;7.982;2023-05-15T03:36:49;8.15;;;4.40;;
47365;SDS011;33105;47.964;7.982;2023-05-15T03:39:50;6.68;;;4.85;;
47365;SDS011;33105;47.964;7.982;2023-05-15T03:42:52;10.88;;;5.32;;
47365;SDS011;33105;47.964;7.982;2023-05-15T03:45:54;12.98;;;4.97;;
47365;SDS011;33105;47.964;7.982;2023-05-15T03:48:56;5.97;;;4.60;;
47365;SDS011;33105;47.964;7.982;2023-05-15T03:51:57;5.15;;;3.88;;
47365;SDS011;33105;47.964;7.982;2023-05-15T03:54:58;12.32;;;4.40;;
47365;SDS011;33105;47.964;7.982;2023-05-15T03:57:59;3.80;;;3.40;;
47365;SDS011;33105;47.964;7.982;2023-05-15T04:01:01;4.45;;;3.47;;
47365;SDS011;33105;47.964;7.982;2023-05-15T04:04:03;6.20;;;4.20;;
47365;SDS011;33105;47.964;7.982;2023-05-15T04:07:04;7.68;;;4.00;;
47365;SDS011;33105;47.964;7.982;2023-05-15T04:10:06;6.25;;;3.83;;
47365;SDS011;33105;47.964;7.982;2023-05-15T04:13:07;5.88;;;3.58;;
47365;SDS011;33105;47.964;7.982;2023-05-15T04:16:09;9.35;;;3.78;;
47365;SDS011;33105;47.964;7.982;2023-05-15T04:19:10;5.43;;;3.70;;
47365;SDS011;33105;47.964;7.982;2023-05-15T04:22:11;7.88;;;3.50;;
47365;SDS011;33105;47.964;7.982;2023-05-15T04:25:13;8.02;;;4.20;;
47365;SDS011;33105;47.964;7.982;2023-05-15T04:28:15;7.07;;;4.18;;
47365;SDS011;33105;47.964;7.982;2023-05-15T04:31:17;6.63;;;4.53;;
47365;SDS011;33105;47.964;7.982;2023-05-15T04:34:18;6.50;;;4.20;;
47365;SDS011;33105;47.964;7.982;2023-05-15T04:37:20;9.57;;;4.38;;
47365;SDS011;33105;47.964;7.982;2023-05-15T04:40:21;14.27;;;5.20;;
47365;SDS011;33105;47.964;7.982;2023-05-15T04:43:23;6.68;;;4.75;;
47365;SDS011;33105;47.964;7.982;2023-05-15T04:46:24;9.15;;;4.53;;
47365;SDS011;33105;47.964;7.982;2023-05-15T04:49:26;9.30;;;4.88;;
47365;SDS011;33105;47.964;7.982;2023-05-15T04:52:27;8.18;;;4.22;;
47365;SDS011;33105;47.964;7.982;2023-05-15T04:55:28;6.03;;;4.47;;
47365;SDS011;33105;47.964;7.982;2023-05-15T04:58:29;6.57;;;4.60;;
47365;SDS011;33105;47.964;7.982;2023-05-15T05:01:31;10.05;;;4.80;;
47365;SDS011;33105;47.964;7.982;2023-05-15T05:04:32;7.55;;;4.82;;
47365;SDS011;33105;47.964;7.982;2023-05-15T05:07:33;16.85;;;5.75;;
47365;SDS011;33105;47.964;7.982;2023-05-15T05:10:35;6.95;;;4.90;;
47365;SDS011;33105;47.964;7.982;2023-05-15T05:13:36;9.88;;;5.88;;
47365;SDS011;33105;47.964;7.982;2023-05-15T05:16:38;6.50;;;5.55;;
47365;SDS011;33105;47.964;7.982;2023-05-15T05:19:39;4.95;;;4.45;;
47365;SDS011;33105;47.964;7.982;2023-05-15T05:22:41;4.80;;;4.25;;
47365;SDS011;33105;47.964;7.982;2023-05-15T05:25:42;9.82;;;5.28;;
47365;SDS011;33105;47.964;7.982;2023-05-15T05:28:44;10.55;;;5.75;;
47365;SDS011;33105;47.964;7.982;2023-05-15T05:31:45;6.57;;;5.15;;
47365;SDS011;33105;47.964;7.982;2023-05-15T05:34:47;10.88;;;5.72;;
47365;SDS011;33105;47.964;7.982;2023-05-15T05:37:48;7.68;;;6.70;;
47365;SDS011;33105;47.964;7.982;2023-05-15T05:40:49;8.07;;;6.57;;
47365;SDS011;33105;47.964;7.982;2023-05-15T05:43:50;7.32;;;5.97;;
47365;SDS011;33105;47.964;7.982;2023-05-15T05:46:52;5.65;;;4.95;;
47365;SDS011;33105;47.964;7.982;2023-05-15T05:49:53;8.55;;;5.05;;
47365;SDS011;33105;47.964;7.982;2023-05-15T05:52:55;7.10;;;5.15;;
47365;SDS011;33105;47.964;7.982;2023-05-15T05:55:56;8.48;;;5.57;;
47365;SDS011;33105;47.964;7.982;2023-05-15T05:58:57;8.35;;;5.60;;
47365;SDS011;33105;47.964;7.982;2023-05-15T06:02:01;6.30;;;5.38;;
47365;SDS011;33105;47.964;7.982;2023-05-15T06:05:03;7.45;;;5.63;;
47365;SDS011;33105;47.964;7.982;2023-05-15T06:08:06;13.07;;;6.50;;
47365;SDS011;33105;47.964;7.982;2023-05-15T06:11:07;8.48;;;6.25;;
47365;SDS011;33105;47.964;7.982;2023-05-15T06:14:08;10.75;;;6.75;;
47365;SDS011;33105;47.964;7.982;2023-05-15T06:17:10;6.60;;;5.85;;
47365;SDS011;33105;47.964;7.982;2023-05-15T06:20:11;8.57;;;5.75;;
47365;SDS011;33105;47.964;7.982;2023-05-15T06:23:13;5.95;;;4.95;;
47365;SDS011;33105;47.964;7.982;2023-05-15T06:26:14;7.03;;;4.70;;
47365;SDS011;33105;47.964;7.982;2023-05-15T06:29:15;5.32;;;4.47;;
47365;SDS011;33105;47.964;7.982;2023-05-15T06:32:17;5.85;;;5.13;;
47365;SDS011;33105;47.964;7.982;2023-05-15T06:35:18;7.57;;;6.15;;
47365;SDS011;33105;47.964;7.982;2023-05-15T06:38:19;5.22;;;4.30;;
47365;SDS011;33105;47.964;7.982;2023-05-15T06:41:20;4.93;;;4.20;;
47365;SDS011;33105;47.964;7.982;2023-05-15T06:44:22;4.78;;;4.28;;
47365;SDS011;33105;47.964;7.982;2023-05-15T06:47:23;5.03;;;4.53;;
47365;SDS011;33105;47.964;7.982;2023-05-15T06:50:25;8.13;;;4.30;;
47365;SDS011;33105;47.964;7.982;2023-05-15T06:53:28;6.80;;;4.00;;
47365;SDS011;33105;47.964;7.982;2023-05-15T06:56:29;3.95;;;3.63;;
47365;SDS011;33105;47.964;7.982;2023-05-15T06:59:31;4.25;;;3.42;;
47365;SDS011;33105;47.964;7.982;2023-05-15T07:02:35;4.60;;;3.25;;
47365;SDS011;33105;47.964;7.982;2023-05-15T07:05:36;3.60;;;3.08;;
47365;SDS011;33105;47.964;7.982;2023-05-15T07:08:38;5.97;;;3.10;;
47365;SDS011;33105;47.964;7.982;2023-05-15T07:11:39;6.95;;;3.95;;
47365;SDS011;33105;47.964;7.982;2023-05-15T07:14:42;4.22;;;3.83;;
47365;SDS011;33105;47.964;7.982;2023-05-15T07:17:43;6.25;;;3.92;;
47365;SDS011;33105;47.964;7.982;2023-05-15T07:20:44;4.60;;;3.67;;
47365;SDS011;33105;47.964;7.982;2023-05-15T07:23:46;3.95;;;3.55;;
47365;SDS011;33105;47.964;7.982;2023-05-15T07:26:47;4.10;;;3.40;;
47365;SDS011;33105;47.964;7.982;2023-05-15T07:29:48;4.10;;;3.80;;
47365;SDS011;33105;47.964;7.982;2023-05-15T07:32:49;4.43;;;3.78;;
47365;SDS011;33105;47.964;7.982;2023-05-15T07:35:51;7.40;;;4.32;;
47365;SDS011;33105;47.964;7.982;2023-05-15T07:38:52;5.55;;;4.18;;
47365;SDS011;33105;47.964;7.982;2023-05-15T07:41:54;4.45;;;4.03;;
47365;SDS011;33105;47.964;7.982;2023-05-15T07:44:55;4.75;;;4.25;;
47365;SDS011;33105;47.964;7.982;2023-05-15T07:47:56;4.38;;;3.65;;
47365;SDS011;33105;47.964;7.982;2023-05-15T07:50:58;3.58;;;3.28;;
47365;SDS011;33105;47.964;7.982;2023-05-15T07:54:00;3.72;;;3.30;;
47365;SDS011;33105;47.964;7.982;2023-05-15T07:57:03;4.13;;;3.65;;
47365;SDS011;33105;47.964;7.982;2023-05-15T08:00:06;3.30;;;3.00;;
47365;SDS011;33105;47.964;7.982;2023-05-15T08:03:13;3.47;;;3.15;;
47365;SDS011;33105;47.964;7.982;2023-05-15T08:06:14;3.38;;;2.67;;
47365;SDS011;33105;47.964;7.982;2023-05-15T08:09:16;4.18;;;3.22;;
47365;SDS011;33105;47.964;7.982;2023-05-15T08:12:18;2.95;;;2.75;;
47365;SDS011;33105;47.964;7.982;2023-05-15T08:15:21;2.85;;;2.65;;
47365;SDS011;33105;47.964;7.982;2023-05-15T08:18:22;4.47;;;3.03;;
47365;SDS011;33105;47.964;7.982;2023-05-15T08:21:24;2.40;;;2.20;;
47365;SDS011;33105;47.964;7.982;2023-05-15T08:24:25;5.28;;;2.90;;
47365;SDS011;33105;47.964;7.982;2023-05-15T08:27:26;5.80;;;3.58;;
47365;SDS011;33105;47.964;7.982;2023-05-15T08:30:28;2.67;;;2.47;;
47365;SDS011;33105;47.964;7.982;2023-05-15T08:33:29;5.47;;;2.90;;
47365;SDS011;33105;47.964;7.982;2023-05-15T08:36:30;3.92;;;2.95;;
47365;SDS011;33105;47.964;7.982;2023-05-15T08:39:32;3.75;;;2.85;;
47365;SDS011;33105;47.964;7.982;2023-05-15T08:42:38;4.05;;;3.10;;
47365;SDS011;33105;47.964;7.982;2023-05-15T08:45:45;4.50;;;3.53;;
47365;SDS011;33105;47.964;7.982;2023-05-15T08:48:48;7.75;;;3.47;;
47365;SDS011;33105;47.964;7.982;2023-05-15T08:51:53;3.30;;;3.00;;
47365;SDS011;33105;47.964;7.982;2023-05-15T08:54:55;3.85;;;3.53;;
47365;SDS011;33105;47.964;7.982;2023-05-15T08:57:57;5.07;;;3.55;;
47365;SDS011;33105;47.964;7.982;2023-05-15T09:01:00;3.58;;;3.10;;
47365;SDS011;33105;47.964;7.982;2023-05-15T09:04:02;4.03;;;3.10;;
47365;SDS011;33105;47.964;7.982;2023-05-15T09:07:04;7.95;;;2.70;;
47365;SDS011;33105;47.964;7.982;2023-05-15T09:10:05;4.65;;;2.53;;
47365;SDS011;33105;47.964;7.982;2023-05-15T09:13:08;3.47;;;3.05;;
47365;SDS011;33105;47.964;7.982;2023-05-15T09:16:11;3.25;;;2.72;;
47365;SDS011;33105;47.964;7.982;2023-05-15T09:19:12;3.53;;;3.15;;
47365;SDS011;33105;47.964;7.982;2023-05-15T09:22:15;6.25;;;3.03;;
47365;SDS011;33105;47.964;7.982;2023-05-15T09:25:30;4.95;;;3.03;;
47365;SDS011;33105;47.964;7.982;2023-05-15T09:28:37;4.55;;;3.60;;
47365;SDS011;33105;47.964;7.982;2023-05-15T09:31:38;5.65;;;3.72;;
47365;SDS011;33105;47.964;7.982;2023-05-15T09:34:40;10.45;;;4.68;;
47365;SDS011;33105;47.964;7.982;2023-05-15T09:37:44;4.32;;;3.90;;
47365;SDS011;33105;47.964;7.982;2023-05-15T09:40:45;4.75;;;3.90;;
47365;SDS011;33105;47.964;7.982;2023-05-15T09:43:46;8.18;;;3.85;;
47365;SDS011;33105;47.964;7.982;2023-05-15T09:46:48;4.38;;;3.60;;
47365;SDS011;33105;47.964;7.982;2023-05-15T09:49:50;4.13;;;3.50;;
47365;SDS011;33105;47.964;7.982;2023-05-15T09:52:52;3.92;;;3.60;;
47365;SDS011;33105;47.964;7.982;2023-05-15T09:55:53;3.80;;;3.35;;
47365;SDS011;33105;47.964;7.982;2023-05-15T09:58:55;4.07;;;3.38;;
47365;SDS011;33105;47.964;7.982;2023-05-15T10:01:58;5.82;;;3.72;;
47365;SDS011;33105;47.964;7.982;2023-05-15T10:04:59;5.72;;;3.63;;
47365;SDS011;33105;47.964;7.982;2023-05-15T10:08:01;6.47;;;4.18;;
47365;SDS011;33105;47.964;7.982;2023-05-15T10:11:03;4.05;;;3.65;;
47365;SDS011;33105;47.964;7.982;2023-05-15T10:14:06;11.40;;;3.85;;
47365;SDS011;33105;47.964;7.982;2023-05-15T10:17:09;7.50;;;4.40;;
47365;SDS011;33105;47.964;7.982;2023-05-15T10:20:13;4.03;;;3.63;;
47365;SDS011;33105;47.964;7.982;2023-05-15T10:23:19;7.05;;;3.60;;
47365;SDS011;33105;47.964;7.982;2023-05-15T10:26:22;6.20;;;4.03;;
47365;SDS011;33105;47.964;7.982;2023-05-15T10:29:26;4.72;;;3.35;;
47365;SDS011;33105;47.964;7.982;2023-05-15T10:32:28;4.55;;;3.42;;
47365;SDS011;33105;47.964;7.982;2023-05-15T10:35:30;3.60;;;3.10;;
47365;SDS011;33105;47.964;7.982;2023-05-15T10:38:32;5.60;;;3.17;;
47365;SDS011;33105;47.964;7.982;2023-05-15T10:41:35;4.22;;;3.38;;
47365;SDS011;33105;47.964;7.982;2023-05-15T10:44:38;4.43;;;3.45;;
47365;SDS011;33105;47.964;7.982;2023-05-15T10:47:40;3.90;;;3.50;;
47365;SDS011;33105;47.964;7.982;2023-05-15T10:50:43;3.40;;;3.10;;
47365;SDS011;33105;47.964;7.982;2023-05-15T10:53:44;3.97;;;3.00;;
47365;SDS011;33105;47.964;7.982;2023-05-15T10:56:46;3.70;;;3.05;;
47365;SDS011;33105;47.964;7.982;2023-05-15T10:59:47;5.15;;;3.67;;
47365;SDS011;33105;47.964;7.982;2023-05-15T11:02:49;4.80;;;3.65;;
47365;SDS011;33105;47.964;7.982;2023-05-15T11:06:09;4.15;;;3.65;;
47365;SDS011;33105;47.964;7.982;2023-05-15T11:12:22;5.00;;;3.33;;
47365;SDS011;33105;47.964;7.982;2023-05-15T11:15:24;3.95;;;3.53;;
47365;SDS011;33105;47.964;7.982;2023-05-15T11:18:25;4.15;;;2.97;;
47365;SDS011;33105;47.964;7.982;2023-05-15T11:21:30;3.97;;;3.28;;
47365;SDS011;33105;47.964;7.982;2023-05-15T11:24:46;4.07;;;2.58;;
47365;SDS011;33105;47.964;7.982;2023-05-15T11:27:51;3.13;;;2.40;;
47365;SDS011;33105;47.964;7.982;2023-05-15T11:30:58;4.65;;;2.85;;
47365;SDS011;33105;47.964;7.982;2023-05-15T11:34:03;3.13;;;2.70;;
47365;SDS011;33105;47.964;7.982;2023-05-15T11:37:07;5.53;;;3.05;;
47365;SDS011;33105;47.964;7.982;2023-05-15T11:40:20;4.53;;;2.72;;
47365;SDS011;33105;47.964;7.982;2023-05-15T11:43:27;4.32;;;2.78;;
47365;SDS011;33105;47.964;7.982;2023-05-15T11:46:29;3.47;;;2.40;;
47365;SDS011;33105;47.964;7.982;2023-05-15T11:49:32;2.97;;;2.67;;
47365;SDS011;33105;47.964;7.982;2023-05-15T11:52:34;4.13;;;1.95;;
47365;SDS011;33105;47.964;7.982;2023-05-15T11:55:36;3.53;;;2.35;;
47365;SDS011;33105;47.964;7.982;2023-05-15T11:58:41;5.60;;;2.20;;
47365;SDS011;33105;47.964;7.982;2023-05-15T12:01:43;4.35;;;2.47;;
47365;SDS011;33105;47.964;7.982;2023-05-15T12:04:47;2.50;;;2.30;;
47365;SDS011;33105;47.964;7.982;2023-05-15T12:07:49;5.13;;;2.47;;
47365;SDS011;33105;47.964;7.982;2023-05-15T12:10:51;3.40;;;2.47;;
47365;SDS011;33105;47.964;7.982;2023-05-15T12:13:52;2.92;;;2.40;;
47365;SDS011;33105;47.964;7.982;2023-05-15T12:16:58;3.60;;;2.20;;
47365;SDS011;33105;47.964;7.982;2023-05-15T12:20:02;4.07;;;2.60;;
47365;SDS011;33105;47.964;7.982;2023-05-15T12:23:05;2.83;;;2.35;;
47365;SDS011;33105;47.964;7.982;2023-05-15T12:26:07;3.13;;;2.72;;
47365;SDS011;33105;47.964;7.982;2023-05-15T12:29:09;8.25;;;2.70;;
47365;SDS011;33105;47.964;7.982;2023-05-15T12:32:10;3.22;;;2.92;;
47365;SDS011;33105;47.964;7.982;2023-05-15T12:35:12;7.70;;;2.92;;
47365;SDS011;33105;47.964;7.982;2023-05-15T12:38:14;7.32;;;2.60;;
47365;SDS011;33105;47.964;7.982;2023-05-15T12:41:18;3.33;;;2.65;;
47365;SDS011;33105;47.964;7.982;2023-05-15T12:44:20;4.68;;;2.42;;
47365;SDS011;33105;47.964;7.982;2023-05-15T12:47:22;3.80;;;2.47;;
47365;SDS011;33105;47.964;7.982;2023-05-15T12:50:24;3.17;;;2.30;;
47365;SDS011;33105;47.964;7.982;2023-05-15T12:53:30;4.28;;;2.65;;
47365;SDS011;33105;47.964;7.982;2023-05-15T12:56:33;4.57;;;2.95;;
47365;SDS011;33105;47.964;7.982;2023-05-15T12:59:35;3.92;;;2.60;;
47365;SDS011;33105;47.964;7.982;2023-05-15T13:02:36;7.07;;;2.83;;
47365;SDS011;33105;47.964;7.982;2023-05-15T13:05:38;5.68;;;3.03;;
47365;SDS011;33105;47.964;7.982;2023-05-15T13:08:42;3.65;;;3.10;;
47365;SDS011;33105;47.964;7.982;2023-05-15T13:11:44;6.45;;;3.20;;
47365;SDS011;33105;47.964;7.982;2023-05-15T13:14:45;4.15;;;3.10;;
47365;SDS011;33105;47.964;7.982;2023-05-15T13:17:47;5.18;;;3.10;;
47365;SDS011;33105;47.964;7.982;2023-05-15T13:20:51;3.63;;;3.15;;
47365;SDS011;33105;47.964;7.982;2023-05-15T13:23:52;7.22;;;3.92;;
47365;SDS011;33105;47.964;7.982;2023-05-15T13:26:54;5.15;;;3.40;;
47365;SDS011;33105;47.964;7.982;2023-05-15T13:29:55;5.15;;;3.50;;
47365;SDS011;33105;47.964;7.982;2023-05-15T13:32:56;7.40;;;3.65;;
47365;SDS011;33105;47.964;7.982;2023-05-15T13:35:57;4.72;;;3.38;;
47365;SDS011;33105;47.964;7.982;2023-05-15T13:38:59;5.13;;;3.30;;
47365;SDS011;33105;47.964;7.982;2023-05-15T13:42:00;7.70;;;3.30;;
47365;SDS011;33105;47.964;7.982;2023-05-15T13:45:03;5.80;;;3.22;;
47365;SDS011;33105;47.964;7.982;2023-05-15T13:48:05;4.22;;;3.10;;
47365;SDS011;33105;47.964;7.982;2023-05-15T13:51:06;6.88;;;2.90;;
47365;SDS011;33105;47.964;7.982;2023-05-15T13:54:07;5.78;;;2.92;;
47365;SDS011;33105;47.964;7.982;2023-05-15T13:57:08;4.93;;;2.55;;
47365;SDS011;33105;47.964;7.982;2023-05-15T14:00:10;3.67;;;2.47;;
47365;SDS011;33105;47.964;7.982;2023-05-15T14:03:12;8.52;;;2.33;;
47365;SDS011;33105;47.964;7.982;2023-05-15T14:06:14;4.53;;;2.42;;
47365;SDS011;33105;47.964;7.982;2023-05-15T14:09:15;3.63;;;2.40;;
47365;SDS011;33105;47.964;7.982;2023-05-15T14:12:16;3.85;;;2.55;;
47365;SDS011;33105;47.964;7.982;2023-05-15T14:15:18;4.60;;;2.50;;
47365;SDS011;33105;47.964;7.982;2023-05-15T14:18:19;3.05;;;2.38;;
47365;SDS011;33105;47.964;7.982;2023-05-15T14:21:21;4.10;;;2.03;;
47365;SDS011;33105;47.964;7.982;2023-05-15T14:24:22;2.00;;;1.80;;
47365;SDS011;33105;47.964;7.982;2023-05-15T14:27:23;7.63;;;2.88;;
47365;SDS011;33105;47.964;7.982;2023-05-15T14:30:25;18.13;;;5.13;;
47365;SDS011;33105;47.964;7.982;2023-05-15T14:33:26;3.85;;;1.88;;
47365;SDS011;33105;47.964;7.982;2023-05-15T14:36:27;1.92;;;1.80;;
47365;SDS011;33105;47.964;7.982;2023-05-15T14:39:28;2.08;;;1.88;;
47365;SDS011;33105;47.964;7.982;2023-05-15T14:42:30;2.58;;;1.67;;
47365;SDS011;33105;47.964;7.982;2023-05-15T14:45:31;3.47;;;2.00;;
47365;SDS011;33105;47.964;7.982;2023-05-15T14:48:34;2.83;;;1.75;;
47365;SDS011;33105;47.964;7.982;2023-05-15T14:51:35;2.63;;;2.00;;
47365;SDS011;33105;47.964;7.982;2023-05-15T14:54:37;2.60;;;1.60;;
47365;SDS011;33105;47.964;7.982;2023-05-15T14:57:38;3.30;;;1.70;;
47365;SDS011;33105;47.964;7.982;2023-05-15T15:00:40;2.25;;;1.75;;
47365;SDS011;33105;47.964;7.982;2023-05-15T15:03:41;4.75;;;2.05;;
47365;SDS011;33105;47.964;7.982;2023-05-15T15:06:42;3.22;;;1.92;;
47365;SDS011;33105;47.964;7.982;2023-05-15T15:09:44;2.60;;;1.70;;
47365;SDS011;33105;47.964;7.982;2023-05-15T15:12:45;6.95;;;1.70;;
47365;SDS011;33105;47.964;7.982;2023-05-15T15:15:46;5.15;;;1.55;;
47365;SDS011;33105;47.964;7.982;2023-05-15T15:18:49;3.25;;;1.58;;
47365;SDS011;33105;47.964;7.982;2023-05-15T15:21:50;4.38;;;2.17;;
47365;SDS011;33105;47.964;7.982;2023-05-15T15:24:51;2.10;;;1.60;;
47365;SDS011;33105;47.964;7.982;2023-05-15T15:27:53;2.15;;;1.70;;
47365;SDS011;33105;47.964;7.982;2023-05-15T15:30:54;2.70;;;1.73;;
47365;SDS011;33105;47.964;7.982;2023-05-15T15:33:56;5.32;;;1.75;;
47365;SDS011;33105;47.964;7.982;2023-05-15T15:36:57;3.25;;;1.98;;
47365;SDS011;33105;47.964;7.982;2023-05-15T15:39:59;2.70;;;1.80;;
47365;SDS011;33105;47.964;7.982;2023-05-15T15:43:01;3.67;;;2.20;;
47365;SDS011;33105;47.964;7.982;2023-05-15T15:46:02;2.72;;;1.88;;
47365;SDS011;33105;47.964;7.982;2023-05-15T15:49:04;3.85;;;1.73;;
47365;SDS011;33105;47.964;7.982;2023-05-15T15:52:05;3.42;;;1.98;;
47365;SDS011;33105;47.964;7.982;2023-05-15T15:55:07;2.95;;;1.80;;
47365;SDS011;33105;47.964;7.982;2023-05-15T15:58:08;2.60;;;1.85;;
47365;SDS011;33105;47.964;7.982;2023-05-15T16:01:10;1.75;;;1.65;;
47365;SDS011;33105;47.964;7.982;2023-05-15T16:04:11;2.20;;;1.52;;
47365;SDS011;33105;47.964;7.982;2023-05-15T16:07:12;2.13;;;1.92;;
47365;SDS011;33105;47.964;7.982;2023-05-15T16:10:13;1.67;;;1.58;;
47365;SDS011;33105;47.964;7.982;2023-05-15T16:13:15;2.50;;;1.83;;
47365;SDS011;33105;47.964;7.982;2023-05-15T16:16:16;3.58;;;1.60;;
47365;SDS011;33105;47.964;7.982;2023-05-15T16:19:17;2.80;;;1.70;;
47365;SDS011;33105;47.964;7.982;2023-05-15T16:22:19;6.85;;;2.08;;
47365;SDS011;33105;47.964;7.982;2023-05-15T16:25:20;4.38;;;1.83;;
47365;SDS011;33105;47.964;7.982;2023-05-15T16:28:21;1.60;;;1.40;;
47365;SDS011;33105;47.964;7.982;2023-05-15T16:31:23;2.88;;;1.60;;
47365;SDS011;33105;47.964;7.982;2023-05-15T16:34:24;3.15;;;1.80;;
47365;SDS011;33105;47.964;7.982;2023-05-15T16:37:25;4.90;;;1.70;;
47365;SDS011;33105;47.964;7.982;2023-05-15T16:40:26;4.32;;;1.85;;
47365;SDS011;33105;47.964;7.982;2023-05-15T16:43:28;3.70;;;1.80;;
47365;SDS011;33105;47.964;7.982;2023-05-15T16:46:29;2.72;;;1.45;;
47365;SDS011;33105;47.964;7.982;2023-05-15T16:49:30;2.45;;;1.75;;
47365;SDS011;33105;47.964;7.982;2023-05-15T16:52:31;3.50;;;1.90;;
47365;SDS011;33105;47.964;7.982;2023-05-15T16:55:33;2.13;;;1.50;;
47365;SDS011;33105;47.964;7.982;2023-05-15T16:58:34;2.60;;;1.90;;
47365;SDS011;33105;47.964;7.982;2023-05-15T17:01:35;2.15;;;1.65;;
47365;SDS011;33105;47.964;7.982;2023-05-15T17:04:36;3.92;;;1.73;;
47365;SDS011;33105;47.964;7.982;2023-05-15T17:07:38;3.97;;;1.88;;
47365;SDS011;33105;47.964;7.982;2023-05-15T17:10:40;4.40;;;1.90;;
47365;SDS011;33105;47.964;7.982;2023-05-15T17:13:41;3.15;;;1.83;;
47365;SDS011;33105;47.964;7.982;2023-05-15T17:16:42;2.83;;;2.15;;
47365;SDS011;33105;47.964;7.982;2023-05-15T17:19:45;6.28;;;2.38;;
47365;SDS011;33105;47.964;7.982;2023-05-15T17:22:46;3.20;;;2.22;;
47365;SDS011;33105;47.964;7.982;2023-05-15T17:25:47;2.80;;;2.25;;
47365;SDS011;33105;47.964;7.982;2023-05-15T17:28:48;3.72;;;2.40;;
47365;SDS011;33105;47.964;7.982;2023-05-15T17:31:51;2.22;;;2.03;;
47365;SDS011;33105;47.964;7.982;2023-05-15T17:34:52;4.10;;;2.13;;
47365;SDS011;33105;47.964;7.982;2023-05-15T17:37:53;5.82;;;2.15;;
47365;SDS011;33105;47.964;7.982;2023-05-15T17:40:55;2.72;;;2.20;;
47365;SDS011;33105;47.964;7.982;2023-05-15T17:43:56;4.72;;;2.10;;
47365;SDS011;33105;47.964;7.982;2023-05-15T17:46:57;4.50;;;2.55;;
47365;SDS011;33105;47.964;7.982;2023-05-15T17:49:58;2.25;;;2.05;;
47365;SDS011;33105;47.964;7.982;2023-05-15T17:53:00;3.35;;;2.10;;
47365;SDS011;33105;47.964;7.982;2023-05-15T17:56:02;2.97;;;2.10;;
47365;SDS011;33105;47.964;7.982;2023-05-15T17:59:03;2.55;;;2.13;;
47365;SDS011;33105;47.964;7.982;2023-05-15T18:02:05;4.10;;;2.50;;
47365;SDS011;33105;47.964;7.982;2023-05-15T18:05:06;3.72;;;2.72;;
47365;SDS011;33105;47.964;7.982;2023-05-15T18:08:08;4.20;;;2.40;;
47365;SDS011;33105;47.964;7.982;2023-05-15T18:11:09;3.38;;;2.58;;
47365;SDS011;33105;47.964;7.982;2023-05-15T18:14:12;3.15;;;2.50;;
47365;SDS011;33105;47.964;7.982;2023-05-15T18:17:13;5.10;;;3.13;;
47365;SDS011;33105;47.964;7.982;2023-05-15T18:20:16;6.00;;;2.90;;
47365;SDS011;33105;47.964;7.982;2023-05-15T18:23:17;3.55;;;3.05;;
47365;SDS011;33105;47.964;7.982;2023-05-15T18:26:21;4.68;;;2.72;;
47365;SDS011;33105;47.964;7.982;2023-05-15T18:29:23;7.85;;;3.00;;
47365;SDS011;33105;47.964;7.982;2023-05-15T18:32:24;4.95;;;3.30;;